»·PEaware :: ASA805 KGEG-KPDX

ASA805 :: KGEG-KPDX

FLIGHT INFORMATION

Flight Status: Arrived
Operator:
Alaska Airlines
More flights by this operator :: More flights under this callsign
Pilot: Kevin M. (7)
Aircraft: BOEING 737-800
(B738)
More flights by this aircraft type
Origin: KGEG Spokane Intl
United States
Destination: KPDX Portland Intl
United States
More flights between these airports :: More routes between these airports
Route: ZEGRO JORAD HHOOD4
File this flight plan on PilotEdge
Remarks:
Altitude:
(Current/Filed)
26,000ft
Speed:
(Current/Filed)
459kts
Departed: 11-Jan-18 09:11 AM
Arrived: 11-Jan-18 10:13 AM
Distance/Time
Traveled:
242nm/1:02
Distance/Time
To Go:
Arrived

Flight Plot

Page will automatically refresh every two minutes.

Flight plan parsing failed; only flown route is shown


Map Options




Map Legend


Flown Route
Filed Route
Departure Airport
Arrival Airport
Navaid (VOR, NDB)
Fix

Horizontal Profiles

Position Reports

Time Latitude Longitude Heading Altitude Ground
Speed
11-Jan-18 08:59 47.623352 -117.539256 0 2382ft 0kts
11-Jan-18 09:00 47.623352 -117.539256 0 2382ft 0kts
11-Jan-18 09:03 47.623352 -117.539256 0 2382ft 0kts
11-Jan-18 09:04 47.623352 -117.539256 0 2382ft 0kts
11-Jan-18 09:05 47.623352 -117.539256 0 2383ft 0kts
11-Jan-18 09:06 47.623352 -117.539256 0 2383ft 0kts
11-Jan-18 09:07 47.623352 -117.539256 0 2383ft 0kts
11-Jan-18 09:08 47.623352 -117.539256 0 2383ft 0kts
11-Jan-18 09:09 47.623352 -117.539256 0 2383ft 0kts
11-Jan-18 09:10 47.623112 -117.539259 0 2383ft 2kts
11-Jan-18 09:11 47.622639 -117.539544 86 2383ft 0kts
11-Jan-18 09:12 47.622645 -117.539659 90 2383ft 0kts
11-Jan-18 09:13 47.622644 -117.539569 90 2383ft 3kts
11-Jan-18 09:14 47.620651 -117.538201 224 2383ft 20kts
11-Jan-18 09:15 47.615412 -117.546085 225 2382ft 33kts
11-Jan-18 09:16 47.610374 -117.549698 47 2383ft 13kts
11-Jan-18 09:17 47.621679 -117.532614 45 2461ft 160kts
11-Jan-18 09:18 47.658466 -117.484906 37 4291ft 232kts
11-Jan-18 09:19 47.709892 -117.418613 39 7277ft 271kts
11-Jan-18 09:20 47.772158 -117.361411 356 10460ft 284kts
11-Jan-18 09:21 47.837004 -117.435450 287 11793ft 357kts
11-Jan-18 09:22 47.813777 -117.573151 228 15426ft 378kts
11-Jan-18 09:23 47.720705 -117.644142 209 18734ft 403kts
11-Jan-18 09:24 47.618621 -117.708997 210 21892ft 419kts
11-Jan-18 09:25 47.510793 -117.777257 211 24758ft 433kts
11-Jan-18 09:26 47.419257 -117.874966 237 26004ft 415kts
11-Jan-18 09:27 47.343928 -118.007363 236 25990ft 428kts
11-Jan-18 09:28 47.266904 -118.139608 235 25989ft 429kts
11-Jan-18 09:29 47.190025 -118.271321 236 25987ft 428kts
11-Jan-18 09:30 47.113756 -118.402335 236 26023ft 421kts
11-Jan-18 09:31 47.038334 -118.532035 236 26027ft 421kts
11-Jan-18 09:32 46.967180 -118.654773 236 26028ft 416kts
11-Jan-18 09:33 46.895689 -118.777901 236 26040ft 412kts
11-Jan-18 09:34 46.823787 -118.902337 236 26053ft 407kts
11-Jan-18 09:35 46.753387 -119.024432 236 26076ft 404kts
11-Jan-18 09:36 46.682846 -119.146920 236 26082ft 403kts
11-Jan-18 09:37 46.612186 -119.270041 236 26071ft 403kts
11-Jan-18 09:38 46.541276 -119.393607 236 26066ft 404kts
11-Jan-18 09:39 46.470845 -119.516826 237 26064ft 403kts
11-Jan-18 09:40 46.400489 -119.639905 237 26062ft 403kts
11-Jan-18 09:41 46.331864 -119.760087 237 26076ft 404kts
11-Jan-18 09:42 46.263682 -119.879841 236 26055ft 403kts
11-Jan-18 09:43 46.193476 -120.003424 237 26039ft 403kts
11-Jan-18 09:44 46.123943 -120.126179 237 26041ft 403kts
11-Jan-18 09:45 46.054151 -120.249446 237 26024ft 403kts
11-Jan-18 09:46 45.984803 -120.372383 237 26020ft 403kts
11-Jan-18 09:47 45.916854 -120.492875 237 26018ft 403kts
11-Jan-18 09:48 45.850196 -120.611368 237 26011ft 402kts
11-Jan-18 09:49 45.801359 -120.733483 251 26026ft 393kts
11-Jan-18 09:50 45.763062 -120.875520 251 26022ft 399kts
11-Jan-18 09:51 45.725196 -121.013680 251 26008ft 383kts
11-Jan-18 09:52 45.689028 -121.145194 250 26006ft 379kts
11-Jan-18 09:53 45.653039 -121.274167 250 25882ft 376kts
11-Jan-18 09:54 45.619693 -121.393517 250 23270ft 292kts
11-Jan-18 09:55 45.591873 -121.493150 249 20802ft 280kts
11-Jan-18 09:56 45.563795 -121.593107 248 18274ft 264kts
11-Jan-18 09:57 45.539477 -121.679604 247 15829ft 241kts
11-Jan-18 09:58 45.531181 -121.771310 267 14479ft 247kts
11-Jan-18 09:59 45.534784 -121.865146 267 13492ft 245kts
11-Jan-18 10:00 45.538146 -121.955930 269 12550ft 245kts
11-Jan-18 10:01 45.556091 -122.044613 278 11612ft 253kts
11-Jan-18 10:02 45.575296 -122.135846 277 10633ft 256kts
11-Jan-18 10:03 45.594198 -122.226482 277 9682ft 262kts
11-Jan-18 10:04 45.613446 -122.319227 277 8699ft 271kts
11-Jan-18 10:05 45.632736 -122.413107 279 7706ft 277kts
11-Jan-18 10:06 45.656641 -122.502965 293 6711ft 270kts
11-Jan-18 10:07 45.687244 -122.586630 293 5751ft 248kts
11-Jan-18 10:08 45.716235 -122.666578 293 5008ft 238kts
11-Jan-18 10:09 45.745133 -122.746535 293 4999ft 242kts
11-Jan-18 10:10 45.774538 -122.828942 292 4989ft 241kts
11-Jan-18 10:11 45.772708 -122.909927 213 4302ft 214kts
11-Jan-18 10:12 45.721954 -122.907513 146 3989ft 201kts
11-Jan-18 10:13 45.690803 -122.849901 117 3967ft 180kts
11-Jan-18 10:14 45.669460 -122.787826 121 3171ft 179kts
11-Jan-18 10:15 45.646162 -122.727787 119 2140ft 179kts
11-Jan-18 10:16 45.627979 -122.680896 118 1364ft 152kts
11-Jan-18 10:17 45.607832 -122.629044 118 591ft 136kts
11-Jan-18 10:18 45.593613 -122.592547 118 40ft 129kts
11-Jan-18 10:19 45.586191 -122.576587 275 37ft 5kts
11-Jan-18 10:20 45.589534 -122.586587 263 37ft 37kts
11-Jan-18 10:21 45.592870 -122.596071 293 37ft 32kts
11-Jan-18 10:22 45.590607 -122.599432 207 37ft 0kts

Navigation Log

Ident Type
Flight plan parsing failed, navigation log unavailable